Impacts TAF Board INFO
FOR SITUATIONAL AWARENESS. NOT TO BE USED FOR FLIGHT PLANNING PURPOSES.
IDs:

KSAN - San Diego Intl Arpt, CA, US

Issued at 2341 UTC 24 Feb 2018
Updated at 2347 UTC 24 Feb 2018
Potential Impact None Slight Moderate High
Time2251Z 25/00Z 25/01Z 25/02Z 25/03Z 25/04Z 25/05Z 25/06Z 25/07Z 25/08Z 25/09Z 25/10Z 25/11Z 25/12Z>>
Type OBS PRVL PRVL PRVL PRVL PRVL PRVL PRVL PRVL PRVL PRVL PRVL PRVL PRVL
VIS 10 >6 >6 >6 >6 >6 >6 >6 >6 >6 >6 >6 >6 >6
CIG -- -- -- -- -- -- -- -- -- -- -- -- -- --
Cover FEW SKC SKC SKC SKC SKC SKC SKC SKC SKC SKC SKC SKC SKC
FltCat VFR VFR VFR VFR VFR VFR VFR VFR VFR VFR VFR VFR VFR VFR
WX -- -- -- -- -- -- -- -- -- -- -- -- -- --
WDir 300 290 290 VRB VRB VRB VRB VRB VRB VRB VRB VRB VRB VRB
WSpd 11 10 10 4 4 4 4 4 4 4 4 4 4 4
WGst -- -- -- -- -- -- -- -- -- -- -- -- -- --

Raw TAF
KSAN 242341Z 2500/2606 29010KT P6SM SKC
  FM250200 VRB04KT P6SM SKC
  FM252000 30010KT P6SM SKC
  FM260200 VRB04KT P6SM SKC


Raw METAR
KSAN 242251Z 30011KT 10SM FEW250 16/M06 A3024 RMK AO2 SLP239 T01561056
KSAN 242151Z 31012KT 10SM FEW250 17/M07 A3025 RMK AO2 SLP244 T01671072
KSAN 242051Z 29012KT 10SM CLR 17/M06 A3027 RMK AO2 RAB12E30B49E51 SLP250 P0000 60000 T01721061 58029

METAR Board
Radar Display
Forecast Discussion

FOR SITUATIONAL AWARENESS. NOT TO BE USED FOR FLIGHT PLANNING PURPOSES.